createdAt,value
2018-01-30T00:00:11.211Z,2.15
2018-01-30T00:02:40.638Z,1.70
2018-01-30T00:05:09.721Z,1.40
2018-01-30T00:07:38.901Z,1.75
2018-01-30T00:10:07.958Z,2.05
2018-01-30T00:12:36.965Z,1.62
2018-01-30T00:15:06.771Z,2.10
2018-01-30T00:17:36.574Z,1.70
2018-01-30T00:20:05.536Z,2.03
2018-01-30T00:22:34.504Z,1.70
2018-01-30T00:25:03.619Z,2.30
2018-01-30T00:27:32.580Z,1.65
2018-01-30T00:30:01.608Z,1.65
2018-01-30T00:32:31.387Z,1.30
2018-01-30T00:35:00.498Z,2.05
2018-01-30T00:37:29.571Z,2.17
2018-01-30T00:39:58.641Z,2.08
2018-01-30T00:42:28.820Z,1.80
2018-01-30T00:44:57.830Z,1.70
2018-01-30T00:47:26.828Z,1.80
2018-01-30T00:49:55.838Z,1.98
2018-01-30T00:52:24.877Z,2.05
2018-01-30T00:54:53.826Z,1.90
2018-01-30T00:57:25.217Z,1.42
2018-01-30T00:59:54.945Z,1.70
2018-01-30T01:02:24.688Z,2.10
2018-01-30T01:04:53.649Z,2.25
2018-01-30T01:07:22.721Z,2.03
2018-01-30T01:09:52.763Z,1.85
2018-01-30T01:12:21.836Z,1.75
2018-01-30T01:14:50.816Z,2.47
2018-01-30T01:17:19.821Z,2.00
2018-01-30T01:19:48.861Z,1.83
2018-01-30T01:22:18.088Z,2.12
2018-01-30T01:24:47.964Z,1.70
2018-01-30T01:27:17.074Z,2.00
2018-01-30T01:29:46.042Z,1.55
2018-01-30T01:32:14.981Z,2.12
2018-01-30T01:34:44.725Z,2.20
2018-01-30T01:37:13.768Z,1.80
2018-01-30T01:39:42.928Z,1.48
2018-01-30T01:42:11.953Z,1.98
2018-01-30T01:44:40.896Z,2.05
2018-01-30T01:47:09.883Z,2.20
2018-01-30T01:49:38.899Z,2.12
2018-01-30T01:52:07.872Z,1.85
2018-01-30T01:54:36.931Z,2.22
2018-01-30T01:57:06.677Z,1.85
2018-01-30T01:59:35.592Z,2.15
2018-01-30T02:02:04.622Z,2.50
2018-01-30T02:04:33.875Z,2.20
2018-01-30T02:07:03.101Z,2.30
2018-01-30T02:09:32.146Z,2.00
2018-01-30T02:12:01.153Z,2.80
2018-01-30T02:14:30.163Z,2.17
2018-01-30T02:16:59.140Z,2.40
2018-01-30T02:19:28.188Z,2.00
2018-01-30T02:21:58.877Z,2.45
2018-01-30T02:24:27.868Z,2.35
2018-01-30T02:26:56.824Z,2.15
2018-01-30T02:29:25.801Z,2.65
2018-01-30T02:31:55.524Z,2.20
2018-01-30T02:34:25.225Z,2.40
2018-01-30T02:36:54.947Z,3.28
2018-01-30T02:39:24.677Z,2.33
2018-01-30T02:41:53.636Z,2.95
2018-01-30T02:44:23.605Z,2.70
2018-01-30T02:46:52.574Z,2.58
2018-01-30T02:49:21.617Z,2.67
2018-01-30T02:51:50.812Z,2.70
2018-01-30T02:54:19.794Z,2.53
2018-01-30T02:56:48.859Z,2.95
2018-01-30T02:59:17.878Z,2.20
2018-01-30T03:01:46.855Z,2.42
2018-01-30T03:04:15.839Z,3.15
2018-01-30T03:06:44.789Z,2.87
2018-01-30T03:09:14.476Z,3.08
2018-01-30T03:11:43.444Z,2.40
2018-01-30T03:14:12.450Z,3.00
2018-01-30T03:16:41.426Z,2.45
2018-01-30T03:19:10.469Z,2.85
2018-01-30T03:21:40.192Z,3.35
2018-01-30T03:24:10.221Z,2.65
2018-01-30T03:26:39.170Z,2.60
2018-01-30T03:29:08.494Z,2.78
2018-01-30T03:31:38.209Z,2.65
2018-01-30T03:34:08.066Z,2.78
2018-01-30T03:36:37.026Z,2.47
2018-01-30T03:39:06.376Z,2.60
2018-01-30T03:41:35.346Z,2.92
2018-01-30T03:44:04.387Z,2.85
2018-01-30T03:46:33.405Z,2.50
2018-01-30T03:49:03.227Z,2.70
2018-01-30T03:51:32.198Z,3.15
2018-01-30T03:54:01.976Z,2.22
2018-01-30T03:56:30.965Z,2.72
2018-01-30T03:59:00.136Z,3.45
2018-01-30T04:01:29.876Z,3.10
2018-01-30T04:03:58.804Z,2.20
2018-01-30T04:06:28.884Z,2.65
2018-01-30T04:08:57.845Z,4.10
2018-01-30T04:11:26.787Z,3.30
2018-01-30T04:13:55.742Z,3.72
2018-01-30T04:16:24.962Z,2.40
2018-01-30T04:18:53.925Z,3.00
2018-01-30T04:21:22.925Z,3.08
2018-01-30T04:23:51.937Z,2.67
2018-01-30T04:26:20.877Z,2.90
2018-01-30T04:28:50.612Z,2.58
2018-01-30T04:31:24.750Z,2.97
2018-01-30T04:33:53.724Z,2.70
2018-01-30T04:36:22.841Z,2.97
2018-01-30T04:38:52.129Z,2.53
2018-01-30T04:41:21.041Z,3.35
2018-01-30T04:43:50.018Z,3.70
2018-01-30T04:46:19.008Z,3.72
2018-01-30T04:48:47.960Z,3.10
2018-01-30T04:51:16.958Z,2.70
2018-01-30T04:53:45.953Z,3.28
2018-01-30T04:56:14.905Z,3.42
2018-01-30T04:58:43.956Z,3.12
2018-01-30T05:01:18.132Z,2.50
2018-01-30T05:03:47.125Z,2.45
2018-01-30T05:06:16.977Z,2.95
2018-01-30T05:08:45.948Z,2.60
2018-01-30T05:11:14.893Z,2.35
2018-01-30T05:13:44.176Z,2.60
2018-01-30T05:16:13.190Z,2.85
2018-01-30T05:18:42.200Z,2.15
2018-01-30T05:21:11.965Z,3.67
2018-01-30T05:23:40.970Z,2.28
2018-01-30T05:26:09.957Z,2.30
2018-01-30T05:28:38.973Z,2.60
2018-01-30T05:31:08.232Z,3.20
2018-01-30T05:34:39.850Z,2.00
2018-01-30T05:37:09.633Z,2.62
2018-01-30T05:39:38.655Z,2.12
2018-01-30T05:42:08.525Z,2.55
2018-01-30T05:44:37.472Z,2.08
2018-01-30T05:47:06.445Z,3.03
2018-01-30T05:49:35.397Z,2.45
2018-01-30T05:52:04.408Z,3.53
2018-01-30T05:54:33.469Z,2.87
2018-01-30T05:57:02.551Z,3.62
2018-01-30T05:59:32.388Z,2.10
2018-01-30T06:02:01.562Z,2.28
2018-01-30T06:04:31.452Z,2.80
2018-01-30T06:07:01.234Z,2.80
2018-01-30T06:09:30.252Z,2.30
2018-01-30T06:12:00.120Z,2.30
2018-01-30T06:14:29.145Z,2.35
2018-01-30T06:16:58.160Z,2.53
2018-01-30T06:19:28.254Z,2.30
2018-01-30T06:21:58.177Z,2.30
2018-01-30T06:24:27.193Z,2.70
2018-01-30T06:26:56.243Z,2.45
2018-01-30T06:29:26.063Z,2.12
2018-01-30T06:31:56.159Z,2.87
2018-01-30T06:34:25.174Z,2.75
2018-01-30T06:36:55.003Z,2.78
2018-01-30T06:39:24.106Z,2.05
2018-01-30T06:41:53.968Z,2.78
2018-01-30T06:44:23.043Z,2.33
2018-01-30T06:46:52.846Z,3.10
2018-01-30T06:49:22.716Z,2.53
2018-01-30T06:51:51.833Z,2.65
2018-01-30T06:54:21.663Z,2.35
2018-01-30T06:56:51.467Z,2.90
2018-01-30T06:59:22.563Z,3.30
2018-01-30T07:01:51.622Z,3.70
2018-01-30T07:04:20.717Z,2.78
2018-01-30T07:06:49.696Z,2.62
2018-01-30T07:09:19.513Z,3.12
2018-01-30T07:11:49.330Z,3.35
2018-01-30T07:14:19.163Z,3.47
2018-01-30T07:16:48.183Z,3.17
2018-01-30T07:19:17.190Z,3.00
2018-01-30T07:21:46.934Z,3.17
2018-01-30T07:24:16.745Z,3.25
2018-01-30T07:26:46.560Z,3.65
2018-01-30T07:29:16.426Z,3.20
2018-01-30T07:31:45.459Z,3.28
2018-01-30T07:34:15.260Z,2.90
2018-01-30T07:36:44.441Z,3.15
2018-01-30T07:39:14.387Z,3.00
2018-01-30T07:41:44.431Z,3.97
2018-01-30T07:44:13.553Z,3.03
2018-01-30T07:46:42.720Z,3.30
2018-01-30T07:49:12.666Z,2.90
2018-01-30T07:51:42.452Z,2.60
2018-01-30T07:54:11.679Z,2.85
2018-01-30T07:56:40.829Z,2.95
2018-01-30T07:59:10.619Z,3.72
2018-01-30T08:01:39.807Z,2.87
2018-01-30T08:04:08.918Z,3.40
2018-01-30T08:06:38.745Z,2.90
2018-01-30T08:09:08.232Z,3.33
2018-01-30T08:11:38.076Z,2.80
2018-01-30T08:14:07.412Z,3.22
2018-01-30T08:16:36.880Z,2.95
2018-01-30T08:19:05.933Z,2.83
2018-01-30T08:21:35.364Z,2.80
2018-01-30T08:24:04.708Z,3.10
2018-01-30T08:26:34.644Z,5.35
2018-01-30T08:29:04.169Z,3.20
2018-01-30T08:31:34.062Z,2.83
2018-01-30T08:34:03.156Z,3.85
2018-01-30T08:36:33.085Z,3.65
2018-01-30T08:39:03.244Z,3.42
2018-01-30T08:41:33.926Z,3.40
2018-01-30T08:44:03.066Z,3.20
2018-01-30T08:46:32.910Z,3.25
2018-01-30T08:49:02.363Z,3.17
2018-01-30T08:51:32.293Z,3.72
2018-01-30T08:54:02.384Z,3.00
2018-01-30T08:56:32.363Z,3.15
2018-01-30T08:59:01.471Z,3.70
2018-01-30T09:01:31.407Z,3.08
2018-01-30T09:04:00.544Z,3.90
2018-01-30T09:06:29.868Z,3.55
2018-01-30T09:09:00.666Z,3.12
2018-01-30T09:11:30.480Z,4.07
2018-01-30T09:13:59.632Z,2.90
2018-01-30T09:16:28.670Z,3.08
2018-01-30T09:18:57.805Z,2.62
2018-01-30T09:21:26.902Z,2.92
2018-01-30T09:23:55.979Z,3.05
2018-01-30T09:26:25.872Z,3.10
2018-01-30T09:28:55.731Z,3.53
2018-01-30T09:31:24.815Z,3.25
2018-01-30T09:33:54.763Z,3.45
2018-01-30T09:36:24.714Z,2.78
2018-01-30T09:38:54.055Z,3.20
2018-01-30T09:41:24.040Z,2.45
2018-01-30T09:43:58.853Z,3.83
2018-01-30T09:46:29.584Z,3.50
2018-01-30T09:48:59.448Z,3.45
2018-01-30T09:51:29.326Z,3.12
2018-01-30T09:53:58.521Z,4.22
2018-01-30T09:56:27.637Z,3.50
2018-01-30T09:58:57.543Z,4.90
2018-01-30T10:01:26.707Z,3.00
2018-01-30T10:03:56.638Z,3.87
2018-01-30T10:06:28.519Z,3.45
2018-01-30T10:08:58.486Z,2.65
2018-01-30T10:11:28.375Z,3.85
2018-01-30T10:13:57.683Z,3.40
2018-01-30T10:16:26.759Z,3.72
2018-01-30T10:18:55.961Z,3.03
2018-01-30T10:21:28.271Z,3.50
2018-01-30T10:23:57.698Z,3.25
2018-01-30T10:26:26.795Z,3.00
2018-01-30T10:28:56.317Z,3.62
2018-01-30T10:31:27.155Z,3.65
2018-01-30T10:33:56.383Z,3.90
2018-01-30T10:36:25.618Z,3.50
2018-01-30T10:38:55.554Z,4.20
2018-01-30T10:41:24.746Z,4.30
2018-01-30T10:43:53.942Z,3.50
2018-01-30T10:46:23.975Z,3.70
2018-01-30T10:48:53.072Z,4.32
2018-01-30T10:51:22.176Z,4.28
2018-01-30T10:53:51.276Z,3.97
2018-01-30T10:56:20.474Z,3.70
2018-01-30T10:58:49.773Z,5.07
2018-01-30T11:01:19.812Z,4.37
2018-01-30T11:03:48.984Z,4.78
2018-01-30T11:06:18.132Z,4.20
2018-01-30T11:08:47.998Z,4.50
2018-01-30T11:11:18.620Z,4.00
2018-01-30T11:13:47.701Z,3.65
2018-01-30T11:16:16.850Z,3.72
2018-01-30T11:18:46.302Z,4.20
2018-01-30T11:21:16.084Z,4.05
2018-01-30T11:23:45.998Z,4.10
2018-01-30T11:26:16.116Z,3.75
2018-01-30T11:28:46.095Z,3.95
2018-01-30T11:31:15.199Z,4.82
2018-01-30T11:33:44.497Z,4.80
2018-01-30T11:36:13.616Z,4.25
2018-01-30T11:38:42.982Z,4.22
2018-01-30T11:41:13.257Z,4.70
2018-01-30T11:43:43.897Z,4.25
2018-01-30T11:46:13.856Z,4.05
2018-01-30T11:48:42.923Z,5.03
2018-01-30T11:51:12.980Z,4.20
2018-01-30T11:53:42.229Z,4.55
2018-01-30T11:56:12.037Z,4.50
2018-01-30T11:58:41.857Z,3.87
2018-01-30T12:01:11.128Z,3.47
2018-01-30T12:03:41.015Z,4.00
2018-01-30T12:06:10.128Z,4.60
2018-01-30T12:08:39.257Z,3.80
2018-01-30T12:11:09.075Z,3.35
2018-01-30T12:13:38.459Z,3.65
2018-01-30T12:16:08.683Z,3.72
2018-01-30T12:18:39.257Z,3.60
2018-01-30T12:21:08.400Z,3.92
2018-01-30T12:23:38.380Z,4.35
2018-01-30T12:26:07.755Z,3.95
2018-01-30T12:28:37.229Z,4.22
2018-01-30T12:31:07.111Z,4.12
2018-01-30T12:33:36.367Z,4.12
2018-01-30T12:36:06.285Z,4.15
2018-01-30T12:38:36.604Z,3.53
2018-01-30T12:41:05.961Z,4.95
2018-01-30T12:46:11.012Z,4.10
2018-01-30T12:48:41.616Z,4.37
2018-01-30T12:51:10.641Z,3.20
2018-01-30T12:53:39.842Z,3.55
2018-01-30T12:56:09.168Z,4.28
2018-01-30T12:58:38.272Z,4.68
2018-01-30T13:01:07.574Z,3.05
2018-01-30T13:03:37.542Z,3.10
2018-01-30T13:06:07.356Z,3.28
2018-01-30T13:08:36.491Z,2.90
2018-01-30T13:11:05.571Z,2.55
2018-01-30T13:13:35.580Z,2.50
2018-01-30T13:16:04.734Z,2.80
2018-01-30T13:18:34.672Z,2.47
2018-01-30T13:21:03.882Z,2.85
2018-01-30T13:23:33.024Z,3.42
2018-01-30T13:26:02.138Z,3.30
2018-01-30T13:28:31.275Z,2.87
2018-01-30T13:31:00.388Z,3.10
2018-01-30T13:33:29.571Z,3.47
2018-01-30T13:35:59.426Z,3.37
2018-01-30T13:38:28.478Z,3.03
2018-01-30T13:40:57.506Z,3.33
2018-01-30T13:43:26.664Z,3.50
2018-01-30T13:45:56.304Z,2.90
2018-01-30T13:48:26.192Z,3.22
2018-01-30T13:50:56.841Z,4.18
2018-01-30T13:53:26.889Z,3.30
2018-01-30T13:55:56.341Z,3.10
2018-01-30T13:58:26.274Z,3.20
2018-01-30T14:00:56.258Z,3.25
2018-01-30T14:03:27.331Z,2.90
2018-01-30T14:05:57.227Z,3.25
2018-01-30T14:08:27.175Z,3.42
2018-01-30T14:10:56.325Z,2.72
2018-01-30T14:13:25.360Z,2.55
2018-01-30T14:15:54.512Z,3.17
2018-01-30T14:18:23.571Z,3.00
2018-01-30T14:20:52.633Z,2.87
2018-01-30T14:23:22.489Z,2.97
2018-01-30T14:25:52.640Z,3.42
2018-01-30T14:28:21.754Z,3.12
2018-01-30T14:31:02.326Z,3.00
2018-01-30T14:33:32.880Z,3.45
2018-01-30T14:36:01.990Z,3.65
2018-01-30T14:38:31.894Z,3.17
2018-01-30T14:41:01.719Z,3.10
2018-01-30T14:43:31.678Z,3.12
2018-01-30T14:46:01.544Z,2.67
2018-01-30T14:48:31.420Z,3.00
2018-01-30T14:51:01.633Z,3.10
2018-01-30T14:53:31.576Z,4.05
2018-01-30T14:56:00.672Z,3.20
2018-01-30T14:58:29.889Z,3.00
2018-01-30T15:00:59.028Z,3.42
2018-01-30T15:03:28.228Z,3.22
2018-01-30T15:05:58.240Z,3.70
2018-01-30T15:08:27.483Z,2.95
2018-01-30T15:10:57.494Z,3.33
2018-01-30T15:13:26.720Z,3.30
2018-01-30T15:15:56.671Z,3.72
2018-01-30T15:18:28.785Z,3.22
2018-01-30T15:20:59.525Z,3.72
2018-01-30T15:23:28.672Z,3.37
2018-01-30T15:26:03.228Z,3.75
2018-01-30T15:28:32.403Z,3.20
2018-01-30T15:31:02.378Z,3.28
2018-01-30T15:33:31.439Z,3.55
2018-01-30T15:36:01.105Z,3.65
2018-01-30T15:38:32.379Z,3.75
2018-01-30T15:41:02.370Z,3.83
2018-01-30T15:43:31.527Z,3.90
2018-01-30T15:46:01.389Z,3.75
2018-01-30T15:48:34.017Z,3.70
2018-01-30T15:52:23.229Z,4.65
2018-01-30T15:54:52.479Z,3.53
2018-01-30T15:57:21.768Z,3.80
2018-01-30T15:59:51.768Z,3.60
2018-01-30T16:02:21.718Z,3.78
2018-01-30T16:04:50.800Z,4.35
2018-01-30T16:07:19.856Z,3.67
2018-01-30T16:09:49.857Z,3.97
2018-01-30T16:12:19.171Z,3.70
2018-01-30T16:14:48.274Z,4.03
2018-01-30T16:17:17.972Z,3.97
2018-01-30T16:19:47.789Z,3.70
2018-01-30T16:22:17.965Z,4.07
2018-01-30T16:24:50.841Z,4.50
2018-01-30T16:27:20.896Z,4.95
2018-01-30T16:29:50.012Z,4.70
2018-01-30T16:32:19.933Z,3.92
2018-01-30T16:34:49.864Z,4.75
2018-01-30T16:37:19.304Z,4.90
2018-01-30T16:39:48.538Z,4.53
2018-01-30T16:42:18.550Z,5.53
2018-01-30T16:44:47.965Z,4.55
2018-01-30T16:47:18.022Z,6.62
2018-01-30T16:49:47.353Z,4.12
2018-01-30T16:52:16.686Z,3.62
2018-01-30T16:54:46.707Z,4.30
2018-01-30T16:57:15.889Z,3.72
2018-01-30T16:59:45.743Z,3.90
2018-01-30T17:02:14.927Z,4.75
2018-01-30T17:04:44.004Z,4.05
2018-01-30T17:07:14.195Z,3.80
2018-01-30T17:09:43.325Z,4.10
2018-01-30T17:12:12.392Z,4.43
2018-01-30T17:14:41.425Z,3.65
2018-01-30T17:17:11.412Z,4.32
2018-01-30T17:19:41.654Z,4.47
2018-01-30T17:22:12.059Z,4.50
2018-01-30T17:24:41.190Z,4.87
2018-01-30T17:27:10.335Z,6.00
2018-01-30T17:29:39.479Z,5.07
2018-01-30T17:32:08.695Z,4.65
2018-01-30T17:34:38.828Z,4.22
2018-01-30T17:37:08.771Z,5.65
2018-01-30T17:39:38.622Z,6.15
2018-01-30T17:42:07.795Z,5.62
2018-01-30T17:44:37.721Z,5.60
2018-01-30T17:47:07.658Z,5.62
2018-01-30T17:49:36.891Z,4.62
2018-01-30T17:52:06.865Z,5.28
2018-01-30T17:54:36.758Z,4.95
2018-01-30T17:57:08.237Z,6.72
2018-01-30T17:59:37.464Z,5.57
2018-01-30T18:02:06.504Z,4.95
2018-01-30T18:04:36.267Z,5.60
2018-01-30T18:07:05.291Z,5.32
2018-01-30T18:09:34.320Z,5.50
2018-01-30T18:12:03.413Z,6.07
2018-01-30T18:14:33.301Z,5.55
2018-01-30T18:17:02.357Z,6.78
2018-01-30T18:19:31.421Z,5.53
2018-01-30T18:22:00.593Z,5.82
2018-01-30T18:24:29.789Z,6.30
2018-01-30T18:26:59.641Z,5.65
2018-01-30T18:29:28.753Z,6.82
2018-01-30T18:31:57.814Z,5.40
2018-01-30T18:34:27.681Z,6.70
2018-01-30T18:36:56.716Z,6.93
2018-01-30T18:39:26.569Z,6.20
2018-01-30T18:41:56.080Z,6.68
2018-01-30T18:44:25.180Z,6.25
2018-01-30T18:46:54.933Z,7.03
2018-01-30T18:49:24.804Z,7.85
2018-01-30T18:51:55.002Z,7.55
2018-01-30T18:54:24.487Z,7.50
2018-01-30T18:56:53.679Z,7.60
2018-01-30T18:59:23.523Z,7.07
2018-01-30T19:01:52.590Z,7.18
2018-01-30T19:04:21.649Z,7.53
2018-01-30T19:06:57.035Z,9.65
2018-01-30T19:09:26.079Z,8.30
2018-01-30T19:11:55.108Z,8.35
2018-01-30T19:14:24.921Z,8.65
2018-01-30T19:16:54.021Z,8.90
2018-01-30T19:19:23.383Z,7.65
2018-01-30T19:21:52.541Z,9.20
2018-01-30T19:24:21.658Z,8.63
2018-01-30T19:26:52.328Z,8.07
2018-01-30T19:29:21.822Z,8.63
2018-01-30T19:31:51.884Z,8.63
2018-01-30T19:34:21.145Z,9.60
2018-01-30T19:36:51.064Z,9.38
2018-01-30T19:39:20.489Z,10.45
2018-01-30T19:41:49.872Z,9.10
2018-01-30T19:44:19.701Z,10.25
2018-01-30T19:46:49.095Z,8.57
2018-01-30T19:49:18.994Z,8.45
2018-01-30T19:51:49.285Z,8.50
2018-01-30T19:54:19.125Z,7.30
2018-01-30T19:56:48.596Z,7.20
2018-01-30T19:59:18.149Z,7.00
2018-01-30T20:01:47.252Z,6.35
2018-01-30T20:04:17.198Z,6.45
2018-01-30T20:06:47.385Z,7.25
2018-01-30T20:09:17.313Z,6.80
2018-01-30T20:11:47.937Z,5.85
2018-01-30T20:14:17.136Z,6.65
2018-01-30T20:16:46.224Z,5.95
2018-01-30T20:19:16.030Z,6.25
2018-01-30T20:21:46.120Z,5.80
2018-01-30T20:24:15.925Z,6.00
2018-01-30T20:26:45.480Z,6.00
2018-01-30T20:29:14.513Z,5.65
2018-01-30T20:31:43.683Z,5.82
2018-01-30T20:34:12.830Z,5.50
2018-01-30T20:36:42.776Z,6.53
2018-01-30T20:39:12.659Z,6.78
2018-01-30T20:41:41.877Z,6.18
2018-01-30T20:44:11.006Z,5.75
2018-01-30T20:46:40.247Z,5.85
2018-01-30T20:49:09.449Z,5.82
2018-01-30T20:51:38.659Z,6.90
2018-01-30T20:54:07.946Z,5.87
2018-01-30T20:56:37.177Z,5.85
2018-01-30T20:59:07.163Z,5.80
2018-01-30T21:01:38.020Z,5.70
2018-01-30T21:04:07.603Z,5.85
2018-01-30T21:09:40.910Z,5.40
2018-01-30T21:12:10.109Z,6.43
2018-01-30T21:14:39.417Z,5.20
2018-01-30T21:17:08.684Z,5.50
2018-01-30T21:19:38.015Z,5.47
2018-01-30T21:22:07.432Z,5.60
2018-01-30T21:24:36.586Z,5.35
2018-01-30T21:27:05.810Z,5.53
2018-01-30T21:29:34.979Z,4.62
2018-01-30T21:32:04.254Z,5.07
2018-01-30T21:34:34.576Z,5.25
2018-01-30T21:37:04.530Z,5.75
2018-01-30T21:39:33.772Z,4.72
2018-01-30T21:42:03.098Z,5.25
2018-01-30T21:44:32.266Z,5.12
2018-01-30T21:47:02.400Z,4.82
2018-01-30T21:49:32.415Z,5.12
2018-01-30T21:52:02.467Z,5.22
2018-01-30T21:54:31.812Z,4.28
2018-01-30T21:57:01.027Z,4.25
2018-01-30T21:59:30.305Z,4.45
2018-01-30T22:01:59.666Z,4.47
2018-01-30T22:04:28.719Z,4.10
2018-01-30T22:06:58.643Z,4.15
2018-01-30T22:09:28.540Z,4.78
2018-01-30T22:11:57.756Z,4.50
2018-01-30T22:14:27.611Z,4.30
2018-01-30T22:16:56.760Z,4.72
2018-01-30T22:19:26.057Z,4.95
2018-01-30T22:21:56.046Z,5.20
2018-01-30T22:24:25.170Z,4.60
2018-01-30T22:26:54.462Z,5.80
2018-01-30T22:29:23.619Z,5.90
2018-01-30T22:31:52.824Z,5.07
2018-01-30T22:34:21.956Z,6.25
2018-01-30T22:36:51.864Z,5.65
2018-01-30T22:39:21.663Z,5.93
2018-01-30T22:41:51.064Z,5.93
2018-01-30T22:44:29.938Z,6.43
2018-01-30T22:46:49.461Z,7.45
